Temp: 6.1°C   Baro: 993.5mb
  Wind: 0.9mph   Dir: WNW (296°)
  Rain: 0.2mm (0.0mm/hr)
  Solar: 234W/m2  Hum: 88%
 
Bath Spa Weather Station Historical Data
Daily Summary for November 24, 2020 Units:  Both    English   Metric
Daily Weekly Monthly Yearly Custom
  High: Low: Average:
Temperature: 54.5 °F /  12.5 °C 50.2 °F /  10.1 °C 51.7 °F /  10.9 °C
Dew Point: 50.9 °F /  10.5 °C 47 °F /  8.3 °C 48.3 °F /  9.1 °C
Humidity: 90% 78.2% 86%
Wind Speed: 11.6mph /  18.7km/h - 4.4mph /  7.1km/h
Wind Gust: 19mph /  30.6km/h - -
Wind- - South
Pressure: 30.18 in /  1021.9 hPa 29.78 in /  1008.4 hPa -
Precipitation: 0.00 in /  0 mm    
Historical Graphs
 
 
Tabular Data for November 24, 2020
Time Temperature Dew Point Pressure Wind Wind Speed Wind Gust Humidity Rainfall Rate (Hourly) solar
00:04 51.5 °F /  10.8 °C 47 °F /  8.3 °C 30.18in /  1021.9hPa SW 4.8mph /  7.7km/h 10mph /  16.1km/h 82% 0.00in /  0mm 0 W/m2
00:09 51.6 °F /  10.9 °C 47.1 °F /  8.4 °C 30.18in /  1021.9hPa SW 4.4mph /  7.1km/h 11mph /  17.7km/h 82% 0.00in /  0mm 0 W/m2
00:14 51.6 °F /  10.9 °C 47.3 °F /  8.5 °C 30.18in /  1021.9hPa SSW 7.4mph /  11.9km/h 13mph /  20.9km/h 82.4% 0.00in /  0mm 0 W/m2
00:19 51.6 °F /  10.9 °C 47.5 °F /  8.6 °C 30.18in /  1021.9hPa SW 5.1mph /  8.2km/h 13mph /  20.9km/h 83% 0.00in /  0mm 0 W/m2
00:24 51.4 °F /  10.8 °C 47.7 °F /  8.7 °C 30.17in /  1021.6hPa SW 6.1mph /  9.8km/h 10mph /  16.1km/h 83.8% 0.00in /  0mm 0 W/m2
00:29 51.4 °F /  10.8 °C 47.7 °F /  8.7 °C 30.17in /  1021.6hPa WSW 4mph /  6.4km/h 8mph /  12.9km/h 84% 0.00in /  0mm 0 W/m2
00:34 51.3 °F /  10.7 °C 47.8 °F /  8.8 °C 30.17in /  1021.6hPa SW 3.9mph /  6.3km/h 8mph /  12.9km/h 85% 0.00in /  0mm 0 W/m2
00:39 51.3 °F /  10.7 °C 47.8 °F /  8.8 °C 30.17in /  1021.6hPa SSW 4mph /  6.4km/h 8mph /  12.9km/h 85% 0.00in /  0mm 0 W/m2
00:44 51.1 °F /  10.6 °C 47.8 °F /  8.8 °C 30.17in /  1021.6hPa WSW 4.5mph /  7.2km/h 9mph /  14.5km/h 85.4% 0.00in /  0mm 0 W/m2
00:49 51.1 °F /  10.6 °C 47.8 °F /  8.8 °C 30.17in /  1021.6hPa SSW 4.1mph /  6.6km/h 10mph /  16.1km/h 86% 0.00in /  0mm 0 W/m2
00:54 51.3 °F /  10.7 °C 48 °F /  8.9 °C 30.17in /  1021.6hPa SSW 5.3mph /  8.5km/h 10mph /  16.1km/h 86% 0.00in /  0mm 0 W/m2
00:59 51.3 °F /  10.7 °C 48 °F /  8.9 °C 30.16in /  1021.2hPa SSW 3.4mph /  5.5km/h 10mph /  16.1km/h 86% 0.00in /  0mm 0 W/m2
01:04 51.3 °F /  10.7 °C 48 °F /  8.9 °C 30.16in /  1021.2hPa SSW 3.7mph /  6km/h 10mph /  16.1km/h 86% 0.00in /  0mm 0 W/m2
01:09 51.3 °F /  10.7 °C 48 °F /  8.9 °C 30.16in /  1021.2hPa SSW 4.5mph /  7.2km/h 10mph /  16.1km/h 86% 0.00in /  0mm 0 W/m2
01:14 51.3 °F /  10.7 °C 48.1 °F /  8.9 °C 30.16in /  1021.2hPa South 4.4mph /  7.1km/h 10mph /  16.1km/h 86.2% 0.00in /  0mm 0 W/m2
01:19 51.3 °F /  10.7 °C 48.2 °F /  9 °C 30.16in /  1021.2hPa South 2.5mph /  4km/h 8mph /  12.9km/h 86.4% 0.00in /  0mm 0 W/m2
01:24 51.3 °F /  10.7 °C 48.3 °F /  9.1 °C 30.15in /  1020.9hPa SSW 4.3mph /  6.9km/h 7mph /  11.3km/h 86.8% 0.00in /  0mm 0 W/m2
01:29 51.3 °F /  10.7 °C 48.4 °F /  9.1 °C 30.15in /  1020.9hPa SSW 3.4mph /  5.5km/h 10mph /  16.1km/h 87% 0.00in /  0mm 0 W/m2
01:34 51.3 °F /  10.7 °C 48.4 °F /  9.1 °C 30.15in /  1020.9hPa SSW 5.6mph /  9km/h 12mph /  19.3km/h 87% 0.00in /  0mm 0 W/m2
01:39 51.3 °F /  10.7 °C 48.4 °F /  9.1 °C 30.15in /  1020.9hPa SW 5.6mph /  9km/h 12mph /  19.3km/h 87% 0.00in /  0mm 0 W/m2
01:44 51.1 °F /  10.6 °C 48.2 °F /  9 °C 30.15in /  1020.9hPa SSW 5.4mph /  8.7km/h 10mph /  16.1km/h 87% 0.00in /  0mm 0 W/m2
01:49 50.9 °F /  10.5 °C 48 °F /  8.9 °C 30.14in /  1020.5hPa SSW 6.2mph /  10km/h 12mph /  19.3km/h 87% 0.00in /  0mm 0 W/m2
01:54 50.7 °F /  10.4 °C 48.1 °F /  8.9 °C 30.14in /  1020.5hPa SSW 4.6mph /  7.4km/h 12mph /  19.3km/h 87.8% 0.00in /  0mm 0 W/m2
01:59 50.5 °F /  10.3 °C 48 °F /  8.9 °C 30.14in /  1020.5hPa SSW 4.1mph /  6.6km/h 11mph /  17.7km/h 88% 0.00in /  0mm 0 W/m2
02:04 50.5 °F /  10.3 °C 48 °F /  8.9 °C 30.14in /  1020.5hPa SSW 3.7mph /  6km/h 9mph /  14.5km/h 88% 0.00in /  0mm 0 W/m2
02:09 50.4 °F /  10.2 °C 48.1 °F /  8.9 °C 30.14in /  1020.5hPa South 4.8mph /  7.7km/h 11mph /  17.7km/h 88.6% 0.00in /  0mm 0 W/m2
02:14 50.4 °F /  10.2 °C 48.2 °F /  9 °C 30.14in /  1020.5hPa SSW 4.5mph /  7.2km/h 10mph /  16.1km/h 89% 0.00in /  0mm 0 W/m2
02:19 50.4 °F /  10.2 °C 48.2 °F /  9 °C 30.13in /  1020.2hPa South 3.7mph /  6km/h 8mph /  12.9km/h 89% 0.00in /  0mm 0 W/m2
02:24 50.4 °F /  10.2 °C 48.2 °F /  9 °C 30.13in /  1020.2hPa SSW 5.1mph /  8.2km/h 8mph /  12.9km/h 89% 0.00in /  0mm 0 W/m2
02:29 50.4 °F /  10.2 °C 48.2 °F /  9 °C 30.13in /  1020.2hPa SSW 3.3mph /  5.3km/h 8mph /  12.9km/h 89% 0.00in /  0mm 0 W/m2
02:34 50.4 °F /  10.2 °C 48.2 °F /  9 °C 30.12in /  1019.9hPa SSW 6.7mph /  10.8km/h 14mph /  22.5km/h 89% 0.00in /  0mm 0 W/m2
02:39 50.4 °F /  10.2 °C 48.2 °F /  9 °C 30.12in /  1019.9hPa South 4.9mph /  7.9km/h 12mph /  19.3km/h 89% 0.00in /  0mm 0 W/m2
02:44 50.4 °F /  10.2 °C 48.2 °F /  9 °C 30.12in /  1019.9hPa South 4.6mph /  7.4km/h 13mph /  20.9km/h 89% 0.00in /  0mm 0 W/m2
02:49 50.4 °F /  10.2 °C 48.2 °F /  9 °C 30.12in /  1019.9hPa SSW 5.8mph /  9.3km/h 12mph /  19.3km/h 89.2% 0.00in /  0mm 0 W/m2
02:54 50.4 °F /  10.2 °C 48.3 °F /  9.1 °C 30.12in /  1019.9hPa South 3.7mph /  6km/h 8mph /  12.9km/h 89.4% 0.00in /  0mm 0 W/m2
02:59 50.4 °F /  10.2 °C 48.3 °F /  9.1 °C 30.12in /  1019.9hPa South 3.7mph /  6km/h 8mph /  12.9km/h 89.6% 0.00in /  0mm 0 W/m2
03:04 50.4 °F /  10.2 °C 48.2 °F /  9 °C 30.11in /  1019.5hPa SSW 3.2mph /  5.1km/h 7mph /  11.3km/h 89.2% 0.00in /  0mm 0 W/m2
03:09 50.4 °F /  10.2 °C 48.3 °F /  9.1 °C 30.11in /  1019.5hPa South 3.4mph /  5.5km/h 8mph /  12.9km/h 89.6% 0.00in /  0mm 0 W/m2
03:14 50.5 °F /  10.3 °C 48.6 °F /  9.2 °C 30.11in /  1019.5hPa South 0.6mph /  1km/h 6mph /  9.7km/h 90% 0.00in /  0mm 0 W/m2
03:19 50.5 °F /  10.3 °C 48.6 °F /  9.2 °C 30.11in /  1019.5hPa South 1.2mph /  1.9km/h 4mph /  6.4km/h 90% 0.00in /  0mm 0 W/m2
03:24 50.5 °F /  10.3 °C 48.6 °F /  9.2 °C 30.11in /  1019.5hPa South 1mph /  1.6km/h 3mph /  4.8km/h 90% 0.00in /  0mm 0 W/m2
03:29 50.5 °F /  10.3 °C 48.4 °F /  9.1 °C 30.11in /  1019.5hPa SSW 1.6mph /  2.6km/h 4mph /  6.4km/h 89.2% 0.00in /  0mm 0 W/m2
03:34 50.5 °F /  10.3 °C 48.4 °F /  9.1 °C 30.11in /  1019.5hPa SSW 1.2mph /  1.9km/h 6mph /  9.7km/h 89% 0.00in /  0mm 0 W/m2
03:39 50.5 °F /  10.3 °C 48.4 °F /  9.1 °C 30.11in /  1019.5hPa WSW 2mph /  3.2km/h 7mph /  11.3km/h 89% 0.00in /  0mm 0 W/m2
03:44 50.5 °F /  10.3 °C 48.4 °F /  9.1 °C 30.10in /  1019.2hPa SSW 2.5mph /  4km/h 9mph /  14.5km/h 89% 0.00in /  0mm 0 W/m2
03:49 50.5 °F /  10.3 °C 48.4 °F /  9.1 °C 30.10in /  1019.2hPa SSW 3.6mph /  5.8km/h 9mph /  14.5km/h 89% 0.00in /  0mm 0 W/m2
03:54 50.5 °F /  10.3 °C 48.4 °F /  9.1 °C 30.10in /  1019.2hPa South 1.8mph /  2.9km/h 6mph /  9.7km/h 89% 0.00in /  0mm 0 W/m2
03:59 50.4 °F /  10.2 °C 48.2 °F /  9 °C 30.10in /  1019.2hPa SSE 0.6mph /  1km/h 7mph /  11.3km/h 89% 0.00in /  0mm 0 W/m2
04:04 50.4 °F /  10.2 °C 48.2 °F /  9 °C 30.10in /  1019.2hPa SSE 1.4mph /  2.3km/h 5mph /  8km/h 89% 0.00in /  0mm 0 W/m2
04:09 50.3 °F /  10.2 °C 48.1 °F /  8.9 °C 30.09in /  1018.8hPa South 5.2mph /  8.4km/h 9mph /  14.5km/h 89% 0.00in /  0mm 0 W/m2
04:14 50.2 °F /  10.1 °C 48 °F /  8.9 °C 30.09in /  1018.8hPa South 2.4mph /  3.9km/h 8mph /  12.9km/h 89% 0.00in /  0mm 0 W/m2
04:19 50.2 °F /  10.1 °C 48 °F /  8.9 °C 30.09in /  1018.8hPa SSE 1.8mph /  2.9km/h 8mph /  12.9km/h 89% 0.00in /  0mm 0 W/m2
04:24 50.2 °F /  10.1 °C 48.2 °F /  9 °C 30.09in /  1018.8hPa SW 1.8mph /  2.9km/h 5mph /  8km/h 90% 0.00in /  0mm 0 W/m2
04:29 50.2 °F /  10.1 °C 48.2 °F /  9 °C 30.09in /  1018.8hPa SSW 0.4mph /  0.6km/h 4mph /  6.4km/h 90% 0.00in /  0mm 0 W/m2
04:34 50.2 °F /  10.1 °C 48.2 °F /  9 °C 30.09in /  1018.8hPa Calm     90% 0.00in /  0mm 0 W/m2
04:39 50.2 °F /  10.1 °C 48.2 °F /  9 °C 30.08in /  1018.5hPa SSW 1.4mph /  2.3km/h 5mph /  8km/h 90% 0.00in /  0mm 0 W/m2
04:44 50.2 °F /  10.1 °C 48.2 °F /  9 °C 30.08in /  1018.5hPa South 0.6mph /  1km/h 6mph /  9.7km/h 90% 0.00in /  0mm 0 W/m2
04:49 50.2 °F /  10.1 °C 48.2 °F /  9 °C 30.08in /  1018.5hPa SSW 1.8mph /  2.9km/h 7mph /  11.3km/h 90% 0.00in /  0mm 0 W/m2
04:54 50.2 °F /  10.1 °C 48.2 °F /  9 °C 30.08in /  1018.5hPa South 2.4mph /  3.9km/h 9mph /  14.5km/h 90% 0.00in /  0mm 0 W/m2
04:59 50.2 °F /  10.1 °C 48.2 °F /  9 °C 30.08in /  1018.5hPa SW 2.1mph /  3.4km/h 7mph /  11.3km/h 90% 0.00in /  0mm 0 W/m2
05:04 50.2 °F /  10.1 °C 48.2 °F /  9 °C 30.08in /  1018.5hPa SW 1.2mph /  1.9km/h 6mph /  9.7km/h 90% 0.00in /  0mm 0 W/m2
05:09 50.2 °F /  10.1 °C 48.2 °F /  9 °C 30.08in /  1018.5hPa SW 1.6mph /  2.6km/h 6mph /  9.7km/h 90% 0.00in /  0mm 0 W/m2
05:14 50.2 °F /  10.1 °C 48.2 °F /  9 °C 30.07in /  1018.2hPa SSW 2.4mph /  3.9km/h 5mph /  8km/h 89.8% 0.00in /  0mm 0 W/m2
05:19 50.2 °F /  10.1 °C 48 °F /  8.9 °C 30.07in /  1018.2hPa SW 1.8mph /  2.9km/h 5mph /  8km/h 89% 0.00in /  0mm 0 W/m2
05:24 50.2 °F /  10.1 °C 48 °F /  8.9 °C 30.07in /  1018.2hPa South 4.1mph /  6.6km/h 7mph /  11.3km/h 89% 0.00in /  0mm 0 W/m2
05:29 50.4 °F /  10.2 °C 48.2 °F /  9 °C 30.07in /  1018.2hPa South 4mph /  6.4km/h 8mph /  12.9km/h 89% 0.00in /  0mm 0 W/m2
05:34 50.5 °F /  10.3 °C 48.3 °F /  9.1 °C 30.07in /  1018.2hPa SSE 3.6mph /  5.8km/h 8mph /  12.9km/h 89% 0.00in /  0mm 0 W/m2
05:39 50.5 °F /  10.3 °C 48.4 °F /  9.1 °C 30.07in /  1018.2hPa South 2.5mph /  4km/h 8mph /  12.9km/h 89% 0.00in /  0mm 0 W/m2
05:44 50.5 °F /  10.3 °C 48.4 °F /  9.1 °C 30.06in /  1017.8hPa South 3.3mph /  5.3km/h 6mph /  9.7km/h 89% 0.00in /  0mm 0 W/m2
05:49 50.5 °F /  10.3 °C 48.4 °F /  9.1 °C 30.06in /  1017.8hPa South 0.6mph /  1km/h 6mph /  9.7km/h 89% 0.00in /  0mm 0 W/m2
05:54 50.5 °F /  10.3 °C 48.4 °F /  9.1 °C 30.06in /  1017.8hPa South 0.9mph /  1.4km/h 3mph /  4.8km/h 89% 0.00in /  0mm 0 W/m2
05:59 50.5 °F /  10.3 °C 48.4 °F /  9.1 °C 30.06in /  1017.8hPa South 1mph /  1.6km/h 3mph /  4.8km/h 89% 0.00in /  0mm 0 W/m2
06:04 50.5 °F /  10.3 °C 48.4 °F /  9.1 °C 30.06in /  1017.8hPa SSE 2.9mph /  4.7km/h 7mph /  11.3km/h 89% 0.00in /  0mm 0 W/m2
06:09 50.5 °F /  10.3 °C 48.4 °F /  9.1 °C 30.06in /  1017.8hPa South 4.3mph /  6.9km/h 8mph /  12.9km/h 89% 0.00in /  0mm 0 W/m2
06:14 50.5 °F /  10.3 °C 48.4 °F /  9.1 °C 30.06in /  1017.8hPa SSE 0.8mph /  1.3km/h 6mph /  9.7km/h 89% 0.00in /  0mm 0 W/m2
06:19 50.7 °F /  10.4 °C 48.6 °F /  9.2 °C 30.05in /  1017.5hPa SE 2.3mph /  3.7km/h 6mph /  9.7km/h 89% 0.00in /  0mm 0 W/m2
06:24 50.6 °F /  10.3 °C 48.5 °F /  9.2 °C 30.05in /  1017.5hPa SE 2mph /  3.2km/h 6mph /  9.7km/h 89% 0.00in /  0mm 0 W/m2
06:29 50.6 °F /  10.3 °C 48.4 °F /  9.1 °C 30.05in /  1017.5hPa SSE 2mph /  3.2km/h 8mph /  12.9km/h 88.6% 0.00in /  0mm 0 W/m2
06:34 50.7 °F /  10.4 °C 48.2 °F /  9 °C 30.05in /  1017.5hPa SSE 2.5mph /  4km/h 6mph /  9.7km/h 88% 0.00in /  0mm 0 W/m2
06:39 50.7 °F /  10.4 °C 48.2 °F /  9 °C 30.05in /  1017.5hPa SE 2.3mph /  3.7km/h 6mph /  9.7km/h 88% 0.00in /  0mm 0 W/m2
06:44 50.7 °F /  10.4 °C 48.2 °F /  9 °C 30.05in /  1017.5hPa SSE 3.6mph /  5.8km/h 8mph /  12.9km/h 88% 0.00in /  0mm 0 W/m2
06:48 50.7 °F /  10.4 °C 48.2 °F /  9 °C 30.05in /  1017.5hPa South 5mph /  8km/h 8mph /  12.9km/h 88% 0.00in /  0mm 0 W/m2
06:54 50.7 °F /  10.4 °C 48.2 °F /  9 °C 30.04in /  1017.2hPa South 4.4mph /  7.1km/h 9mph /  14.5km/h 88% 0.00in /  0mm 0 W/m2
06:59 50.7 °F /  10.4 °C 48.2 °F /  9 °C 30.04in /  1017.2hPa SSE 4.9mph /  7.9km/h 11mph /  17.7km/h 88% 0.00in /  0mm 0 W/m2
07:04 50.7 °F /  10.4 °C 48.2 °F /  9 °C 30.04in /  1017.2hPa SE 2.8mph /  4.5km/h 7mph /  11.3km/h 88% 0.00in /  0mm 0 W/m2
07:09 50.7 °F /  10.4 °C 48 °F /  8.9 °C 30.04in /  1017.2hPa SSE 4.2mph /  6.8km/h 9mph /  14.5km/h 87.6% 0.00in /  0mm 0 W/m2
07:14 50.7 °F /  10.4 °C 47.8 °F /  8.8 °C 30.04in /  1017.2hPa SSE 2.8mph /  4.5km/h 7mph /  11.3km/h 87% 0.00in /  0mm 0 W/m2
07:19 50.7 °F /  10.4 °C 47.8 °F /  8.8 °C 30.04in /  1017.2hPa South 3.8mph /  6.1km/h 9mph /  14.5km/h 87% 0.00in /  0mm 0 W/m2
07:24 50.7 °F /  10.4 °C 47.8 °F /  8.8 °C 30.04in /  1017.2hPa South 4.6mph /  7.4km/h 8mph /  12.9km/h 87% 0.00in /  0mm 0 W/m2
07:29 50.7 °F /  10.4 °C 47.8 °F /  8.8 °C 30.04in /  1017.2hPa South 6mph /  9.7km/h 9mph /  14.5km/h 87% 0.00in /  0mm 0 W/m2
07:34 50.7 °F /  10.4 °C 47.8 °F /  8.8 °C 30.04in /  1017.2hPa South 3.8mph /  6.1km/h 9mph /  14.5km/h 87% 0.00in /  0mm 0 W/m2
07:39 50.7 °F /  10.4 °C 47.7 °F /  8.7 °C 30.04in /  1017.2hPa South 2.5mph /  4km/h 9mph /  14.5km/h 86.4% 0.00in /  0mm 0 W/m2
07:44 50.7 °F /  10.4 °C 47.5 °F /  8.6 °C 30.05in /  1017.5hPa South 1mph /  1.6km/h 4mph /  6.4km/h 86% 0.00in /  0mm 0 W/m2
07:49 50.7 °F /  10.4 °C 47.5 °F /  8.6 °C 30.05in /  1017.5hPa South 5.2mph /  8.4km/h 8mph /  12.9km/h 86% 0.00in /  0mm 0 W/m2
07:54 50.7 °F /  10.4 °C 47.5 °F /  8.6 °C 30.05in /  1017.5hPa SSW 2.8mph /  4.5km/h 8mph /  12.9km/h 86% 0.00in /  0mm 7 W/m2
07:59 50.7 °F /  10.4 °C 47.5 °F /  8.6 °C 30.05in /  1017.5hPa South 3.2mph /  5.1km/h 6mph /  9.7km/h 86% 0.00in /  0mm 7 W/m2
08:04 50.7 °F /  10.4 °C 47.5 °F /  8.6 °C 30.05in /  1017.5hPa South 2.8mph /  4.5km/h 6mph /  9.7km/h 86% 0.00in /  0mm 9 W/m2
08:09 50.7 °F /  10.4 °C 47.5 °F /  8.6 °C 30.05in /  1017.5hPa SSW 3.2mph /  5.1km/h 8mph /  12.9km/h 86% 0.00in /  0mm 11 W/m2
08:14 50.7 °F /  10.4 °C 47.5 °F /  8.6 °C 30.05in /  1017.5hPa South 2.2mph /  3.5km/h 6mph /  9.7km/h 86% 0.00in /  0mm 12 W/m2
08:19 50.7 °F /  10.4 °C 47.5 °F /  8.6 °C 30.05in /  1017.5hPa SSW 2.8mph /  4.5km/h 7mph /  11.3km/h 86% 0.00in /  0mm 14 W/m2
08:24 50.7 °F /  10.4 °C 47.5 °F /  8.6 °C 30.05in /  1017.5hPa SW 2.8mph /  4.5km/h 10mph /  16.1km/h 86% 0.00in /  0mm 25 W/m2
08:29 50.7 °F /  10.4 °C 47.5 °F /  8.6 °C 30.05in /  1017.5hPa SSW 2.2mph /  3.5km/h 7mph /  11.3km/h 86% 0.00in /  0mm 35 W/m2
08:34 50.7 °F /  10.4 °C 47.5 °F /  8.6 °C 30.04in /  1017.2hPa SSW 4mph /  6.4km/h 7mph /  11.3km/h 86% 0.00in /  0mm 39 W/m2
08:39 50.7 °F /  10.4 °C 47.5 °F /  8.6 °C 30.04in /  1017.2hPa SSE 1.2mph /  1.9km/h 6mph /  9.7km/h 86% 0.00in /  0mm 46 W/m2
08:44 50.7 °F /  10.4 °C 47.4 °F /  8.6 °C 30.04in /  1017.2hPa SSE 2mph /  3.2km/h 5mph /  8km/h 85.2% 0.00in /  0mm 47 W/m2
08:49 50.9 °F /  10.5 °C 47.5 °F /  8.6 °C 30.04in /  1017.2hPa South 3.3mph /  5.3km/h 7mph /  11.3km/h 85% 0.00in /  0mm 54 W/m2
08:54 50.7 °F /  10.4 °C 47.3 °F /  8.5 °C 30.04in /  1017.2hPa South 5.7mph /  9.2km/h 10mph /  16.1km/h 85% 0.00in /  0mm 62 W/m2
08:59 50.8 °F /  10.4 °C 47.4 °F /  8.6 °C 30.04in /  1017.2hPa South 4.3mph /  6.9km/h 8mph /  12.9km/h 85% 0.00in /  0mm 63 W/m2
09:04 50.9 °F /  10.5 °C 47.5 °F /  8.6 °C 30.04in /  1017.2hPa SSW 2.4mph /  3.9km/h 7mph /  11.3km/h 85% 0.00in /  0mm 60 W/m2
09:09 50.8 °F /  10.4 °C 47.4 °F /  8.6 °C 30.03in /  1016.8hPa South 4.6mph /  7.4km/h 8mph /  12.9km/h 85% 0.00in /  0mm 62 W/m2
09:14 50.8 °F /  10.4 °C 47.1 °F /  8.4 °C 30.03in /  1016.8hPa South 3.6mph /  5.8km/h 9mph /  14.5km/h 84.4% 0.00in /  0mm 70 W/m2
09:19 50.9 °F /  10.5 °C 47.1 °F /  8.4 °C 30.03in /  1016.8hPa SSE 1.8mph /  2.9km/h 7mph /  11.3km/h 84% 0.00in /  0mm 77 W/m2
09:24 51 °F /  10.6 °C 47.2 °F /  8.4 °C 30.03in /  1016.8hPa SSW 2.1mph /  3.4km/h 7mph /  11.3km/h 84% 0.00in /  0mm 79 W/m2
09:29 50.9 °F /  10.5 °C 47.1 °F /  8.4 °C 30.03in /  1016.8hPa SSW 3.6mph /  5.8km/h 8mph /  12.9km/h 84% 0.00in /  0mm 79 W/m2
09:34 50.9 °F /  10.5 °C 47.1 °F /  8.4 °C 30.03in /  1016.8hPa SSW 2mph /  3.2km/h 5mph /  8km/h 84% 0.00in /  0mm 79 W/m2
09:39 50.9 °F /  10.5 °C 47.1 °F /  8.4 °C 30.03in /  1016.8hPa South 5.4mph /  8.7km/h 10mph /  16.1km/h 84% 0.00in /  0mm 81 W/m2
09:44 50.8 °F /  10.4 °C 47 °F /  8.3 °C 30.03in /  1016.8hPa South 4mph /  6.4km/h 8mph /  12.9km/h 84% 0.00in /  0mm 77 W/m2
09:49 50.7 °F /  10.4 °C 47.3 °F /  8.5 °C 30.02in /  1016.5hPa South 4.1mph /  6.6km/h 8mph /  12.9km/h 85% 0.00in /  0mm 83 W/m2
09:54 50.9 °F /  10.5 °C 47.5 °F /  8.6 °C 30.02in /  1016.5hPa South 1.2mph /  1.9km/h 5mph /  8km/h 85% 0.00in /  0mm 91 W/m2
09:59 50.9 °F /  10.5 °C 47.5 °F /  8.6 °C 30.02in /  1016.5hPa SSE 2.9mph /  4.7km/h 7mph /  11.3km/h 85% 0.00in /  0mm 58 W/m2
10:04 50.8 °F /  10.4 °C 47.4 °F /  8.6 °C 30.02in /  1016.5hPa SSW 3.2mph /  5.1km/h 8mph /  12.9km/h 85% 0.00in /  0mm 137 W/m2
10:09 51.1 °F /  10.6 °C 47.7 °F /  8.7 °C 30.02in /  1016.5hPa SSW 4.8mph /  7.7km/h 9mph /  14.5km/h 85% 0.00in /  0mm 151 W/m2
10:14 51.3 °F /  10.7 °C 47.8 °F /  8.8 °C 30.02in /  1016.5hPa South 1.7mph /  2.7km/h 7mph /  11.3km/h 85% 0.00in /  0mm 146 W/m2
10:19 51.3 °F /  10.7 °C 47.8 °F /  8.8 °C 30.02in /  1016.5hPa South 2.8mph /  4.5km/h 6mph /  9.7km/h 85% 0.00in /  0mm 149 W/m2
10:24 51.3 °F /  10.7 °C 47.8 °F /  8.8 °C 30.02in /  1016.5hPa South 3.9mph /  6.3km/h 9mph /  14.5km/h 85% 0.00in /  0mm 165 W/m2
10:29 51.5 °F /  10.8 °C 48.1 °F /  8.9 °C 30.01in /  1016.1hPa South 1.6mph /  2.6km/h 6mph /  9.7km/h 85% 0.00in /  0mm 144 W/m2
10:34 51.5 °F /  10.8 °C 47.8 °F /  8.8 °C 30.01in /  1016.1hPa SSE 4.4mph /  7.1km/h 8mph /  12.9km/h 84.2% 0.00in /  0mm 132 W/m2
10:39 51.3 °F /  10.7 °C 47.6 °F /  8.7 °C 30.01in /  1016.1hPa South 4mph /  6.4km/h 7mph /  11.3km/h 84% 0.00in /  0mm 128 W/m2
10:44 51.4 °F /  10.8 °C 47.7 °F /  8.7 °C 30.00in /  1015.8hPa SSE 4.6mph /  7.4km/h 8mph /  12.9km/h 84% 0.00in /  0mm 121 W/m2
10:49 51.4 °F /  10.8 °C 47.7 °F /  8.7 °C 30.00in /  1015.8hPa South 5.4mph /  8.7km/h 13mph /  20.9km/h 84% 0.00in /  0mm 160 W/m2
10:54 51.4 °F /  10.8 °C 47.7 °F /  8.7 °C 30.00in /  1015.8hPa South 4.8mph /  7.7km/h 10mph /  16.1km/h 84% 0.00in /  0mm 195 W/m2
10:59 51.6 °F /  10.9 °C 47.8 °F /  8.8 °C 30.00in /  1015.8hPa South 5.8mph /  9.3km/h 11mph /  17.7km/h 84% 0.00in /  0mm 204 W/m2
11:04 51.6 °F /  10.9 °C 47.7 °F /  8.7 °C 29.99in /  1015.5hPa SSE 5mph /  8km/h 11mph /  17.7km/h 83.8% 0.00in /  0mm 178 W/m2
11:09 52 °F /  11.1 °C 47.9 °F /  8.8 °C 29.99in /  1015.5hPa South 5.3mph /  8.5km/h 10mph /  16.1km/h 83.2% 0.00in /  0mm 188 W/m2
11:14 51.7 °F /  10.9 °C 47.6 °F /  8.7 °C 29.99in /  1015.5hPa SSE 4.8mph /  7.7km/h 11mph /  17.7km/h 83% 0.00in /  0mm 118 W/m2
11:19 51.7 °F /  10.9 °C 47.9 °F /  8.8 °C 29.98in /  1015.1hPa SSE 4.5mph /  7.2km/h 8mph /  12.9km/h 84% 0.00in /  0mm 178 W/m2
11:24 51.9 °F /  11.1 °C 47.9 °F /  8.8 °C 29.98in /  1015.1hPa South 4.4mph /  7.1km/h 12mph /  19.3km/h 83.4% 0.00in /  0mm 193 W/m2
11:29 52.2 °F /  11.2 °C 48.5 °F /  9.2 °C 29.98in /  1015.1hPa SSE 1.4mph /  2.3km/h 5mph /  8km/h 84% 0.00in /  0mm 241 W/m2
11:34 52.3 °F /  11.3 °C 48.2 °F /  9 °C 29.98in /  1015.1hPa SSE 3.2mph /  5.1km/h 10mph /  16.1km/h 83% 0.00in /  0mm 135 W/m2
11:39 52.4 °F /  11.3 °C 48.3 °F /  9.1 °C 29.97in /  1014.8hPa South 4.5mph /  7.2km/h 8mph /  12.9km/h 83% 0.00in /  0mm 146 W/m2
11:44 52.4 °F /  11.3 °C 48 °F /  8.9 °C 29.97in /  1014.8hPa South 4.3mph /  6.9km/h 10mph /  16.1km/h 82.2% 0.00in /  0mm 130 W/m2
11:49 52.5 °F /  11.4 °C 48 °F /  8.9 °C 29.97in /  1014.8hPa SSW 3.9mph /  6.3km/h 10mph /  16.1km/h 82% 0.00in /  0mm 116 W/m2
11:54 52.8 °F /  11.6 °C 48.3 °F /  9.1 °C 29.97in /  1014.8hPa South 1.3mph /  2.1km/h 7mph /  11.3km/h 82% 0.00in /  0mm 91 W/m2
11:59 52.9 °F /  11.6 °C 48.4 °F /  9.1 °C 29.96in /  1014.4hPa SE 3.2mph /  5.1km/h 6mph /  9.7km/h 82% 0.00in /  0mm 79 W/m2
12:04 52.6 °F /  11.4 °C 48.1 °F /  8.9 °C 29.96in /  1014.4hPa SSE 4.4mph /  7.1km/h 10mph /  16.1km/h 82% 0.00in /  0mm 76 W/m2
12:09 52.5 °F /  11.4 °C 48 °F /  8.9 °C 29.96in /  1014.4hPa South 5.3mph /  8.5km/h 12mph /  19.3km/h 82% 0.00in /  0mm 88 W/m2
12:14 52.5 °F /  11.4 °C 48 °F /  8.9 °C 29.96in /  1014.4hPa South 8.2mph /  13.2km/h 13mph /  20.9km/h 82% 0.00in /  0mm 116 W/m2
12:19 52.5 °F /  11.4 °C 48 °F /  8.9 °C 29.95in /  1014.1hPa South 8.2mph /  13.2km/h 16mph /  25.7km/h 82% 0.00in /  0mm 125 W/m2
12:24 52.5 °F /  11.4 °C 48 °F /  8.9 °C 29.95in /  1014.1hPa SSE 7.1mph /  11.4km/h 15mph /  24.1km/h 82% 0.00in /  0mm 120 W/m2
12:29 52.6 °F /  11.4 °C 48.1 °F /  8.9 °C 29.95in /  1014.1hPa South 5.7mph /  9.2km/h 15mph /  24.1km/h 82% 0.00in /  0mm 171 W/m2
12:34 52.9 °F /  11.6 °C 48.4 °F /  9.1 °C 29.95in /  1014.1hPa South 5.5mph /  8.9km/h 11mph /  17.7km/h 82% 0.00in /  0mm 192 W/m2
12:39 53.1 °F /  11.7 °C 48.2 °F /  9 °C 29.95in /  1014.1hPa South 11.6mph /  18.7km/h 19mph /  30.6km/h 81.2% 0.00in /  0mm 200 W/m2
12:44 52.9 °F /  11.6 °C 48 °F /  8.9 °C 29.95in /  1014.1hPa SSE 10.7mph /  17.2km/h 16mph /  25.7km/h 81% 0.00in /  0mm 148 W/m2
12:49 53 °F /  11.7 °C 48.1 °F /  8.9 °C 29.94in /  1013.8hPa South 9.2mph /  14.8km/h 16mph /  25.7km/h 81% 0.00in /  0mm 128 W/m2
12:54 52.9 °F /  11.6 °C 48 °F /  8.9 °C 29.94in /  1013.8hPa South 8.5mph /  13.7km/h 18mph /  29km/h 81% 0.00in /  0mm 121 W/m2
12:59 53 °F /  11.7 °C 48.1 °F /  8.9 °C 29.93in /  1013.4hPa SSE 7.9mph /  12.7km/h 12mph /  19.3km/h 81% 0.00in /  0mm 134 W/m2
13:04 53.1 °F /  11.7 °C 48.2 °F /  9 °C 29.93in /  1013.4hPa SSE 5.2mph /  8.4km/h 12mph /  19.3km/h 81% 0.00in /  0mm 146 W/m2
13:09 53.1 °F /  11.7 °C 48.2 °F /  9 °C 29.93in /  1013.4hPa SSE 4.2mph /  6.8km/h 11mph /  17.7km/h 81% 0.00in /  0mm 169 W/m2
13:14 53.1 °F /  11.7 °C 48.4 °F /  9.1 °C 29.92in /  1013.1hPa SSE 9mph /  14.5km/h 15mph /  24.1km/h 81.2% 0.00in /  0mm 178 W/m2
13:19 53.3 °F /  11.8 °C 48.6 °F /  9.2 °C 29.92in /  1013.1hPa South 6.6mph /  10.6km/h 15mph /  24.1km/h 81.2% 0.00in /  0mm 156 W/m2
13:24 53.4 °F /  11.9 °C 48.6 °F /  9.2 °C 29.91in /  1012.8hPa SSE 7.2mph /  11.6km/h 18mph /  29km/h 81% 0.00in /  0mm 120 W/m2
13:29 53.4 °F /  11.9 °C 48.6 °F /  9.2 °C 29.91in /  1012.8hPa South 8.2mph /  13.2km/h 15mph /  24.1km/h 81% 0.00in /  0mm 114 W/m2
13:34 53.4 °F /  11.9 °C 48.6 °F /  9.2 °C 29.91in /  1012.8hPa SSE 6mph /  9.7km/h 17mph /  27.4km/h 81% 0.00in /  0mm 134 W/m2
13:39 53.4 °F /  11.9 °C 48.6 °F /  9.2 °C 29.91in /  1012.8hPa SSE 7.2mph /  11.6km/h 11mph /  17.7km/h 81% 0.00in /  0mm 160 W/m2
13:44 53.8 °F /  12.1 °C 48.9 °F /  9.4 °C 29.90in /  1012.4hPa SSE 6.2mph /  10km/h 10mph /  16.1km/h 81% 0.00in /  0mm 169 W/m2
13:49 53.8 °F /  12.1 °C 48.9 °F /  9.4 °C 29.90in /  1012.4hPa SSE 2.9mph /  4.7km/h 14mph /  22.5km/h 81% 0.00in /  0mm 142 W/m2
13:54 53.8 °F /  12.1 °C 48.8 °F /  9.3 °C 29.90in /  1012.4hPa SSE 6.3mph /  10.1km/h 11mph /  17.7km/h 80.8% 0.00in /  0mm 142 W/m2
13:59 53.8 °F /  12.1 °C 48.9 °F /  9.4 °C 29.89in /  1012.1hPa SSE 7.2mph /  11.6km/h 11mph /  17.7km/h 81% 0.00in /  0mm 114 W/m2
14:04 53.8 °F /  12.1 °C 48.6 °F /  9.2 °C 29.89in /  1012.1hPa SE 5.7mph /  9.2km/h 10mph /  16.1km/h 80% 0.00in /  0mm 100 W/m2
14:09 53.8 °F /  12.1 °C 48.6 °F /  9.2 °C 29.89in /  1012.1hPa SSE 7.9mph /  12.7km/h 15mph /  24.1km/h 80% 0.00in /  0mm 93 W/m2
14:14 53.8 °F /  12.1 °C 48.6 °F /  9.2 °C 29.89in /  1012.1hPa SSE 5.3mph /  8.5km/h 12mph /  19.3km/h 80% 0.00in /  0mm 90 W/m2
14:19 53.7 °F /  12.1 °C 48.5 °F /  9.2 °C 29.89in /  1012.1hPa SSE 4.6mph /  7.4km/h 12mph /  19.3km/h 80% 0.00in /  0mm 97 W/m2
14:24 53.8 °F /  12.1 °C 48.7 °F /  9.3 °C 29.88in /  1011.7hPa SSE 4.3mph /  6.9km/h 12mph /  19.3km/h 80.2% 0.00in /  0mm 128 W/m2
14:29 53.8 °F /  12.1 °C 48.9 °F /  9.4 °C 29.88in /  1011.7hPa South 3.6mph /  5.8km/h 8mph /  12.9km/h 81% 0.00in /  0mm 144 W/m2
14:34 53.9 °F /  12.2 °C 48.8 °F /  9.3 °C 29.88in /  1011.7hPa South 4mph /  6.4km/h 8mph /  12.9km/h 80.4% 0.00in /  0mm 172 W/m2
14:39 54.2 °F /  12.3 °C 49 °F /  9.4 °C 29.88in /  1011.7hPa SSE 3.6mph /  5.8km/h 9mph /  14.5km/h 80% 0.00in /  0mm 172 W/m2
14:44 54.3 °F /  12.4 °C 48.8 °F /  9.3 °C 29.88in /  1011.7hPa South 5.7mph /  9.2km/h 11mph /  17.7km/h 79.4% 0.00in /  0mm 169 W/m2
14:49 54.5 °F /  12.5 °C 48.9 °F /  9.4 °C 29.88in /  1011.7hPa South 5mph /  8km/h 12mph /  19.3km/h 79% 0.00in /  0mm 144 W/m2
14:54 54.5 °F /  12.5 °C 48.9 °F /  9.4 °C 29.87in /  1011.4hPa South 6.6mph /  10.6km/h 11mph /  17.7km/h 79% 0.00in /  0mm 120 W/m2
14:59 54.5 °F /  12.5 °C 48.8 °F /  9.3 °C 29.87in /  1011.4hPa South 5.8mph /  9.3km/h 10mph /  16.1km/h 78.5% 0.00in /  0mm 93 W/m2
15:04 54.3 °F /  12.4 °C 48.6 °F /  9.2 °C 29.87in /  1011.4hPa South 8.4mph /  13.5km/h 16mph /  25.7km/h 78.2% 0.00in /  0mm 83 W/m2
15:09 54.1 °F /  12.3 °C 48.6 °F /  9.2 °C 29.86in /  1011.1hPa South 5.7mph /  9.2km/h 11mph /  17.7km/h 79% 0.00in /  0mm 67 W/m2
15:14 54 °F /  12.2 °C 48.6 °F /  9.2 °C 29.86in /  1011.1hPa South 5.9mph /  9.5km/h 10mph /  16.1km/h 79% 0.00in /  0mm 60 W/m2
15:19 53.6 °F /  12 °C 48.3 °F /  9.1 °C 29.86in /  1011.1hPa South 7.2mph /  11.6km/h 14mph /  22.5km/h 79.4% 0.00in /  0mm 63 W/m2
15:24 53.4 °F /  11.9 °C 48.1 °F /  8.9 °C 29.86in /  1011.1hPa South 6.6mph /  10.6km/h 15mph /  24.1km/h 79.6% 0.00in /  0mm 63 W/m2
15:29 53.4 °F /  11.9 °C 48.2 °F /  9 °C 29.86in /  1011.1hPa SSW 7.2mph /  11.6km/h 17mph /  27.4km/h 80% 0.00in /  0mm 47 W/m2
15:34 53.2 °F /  11.8 °C 48 °F /  8.9 °C 29.86in /  1011.1hPa South 4.9mph /  7.9km/h 17mph /  27.4km/h 80% 0.00in /  0mm 28 W/m2
15:39 53.2 °F /  11.8 °C 48.1 °F /  8.9 °C 29.86in /  1011.1hPa SSW 7.2mph /  11.6km/h 15mph /  24.1km/h 80.2% 0.00in /  0mm 28 W/m2
15:44 53.2 °F /  11.8 °C 48.4 °F /  9.1 °C 29.86in /  1011.1hPa South 4.8mph /  7.7km/h 13mph /  20.9km/h 81% 0.00in /  0mm 25 W/m2
15:49 53.2 °F /  11.8 °C 48.4 °F /  9.1 °C 29.86in /  1011.1hPa South 5.5mph /  8.9km/h 13mph /  20.9km/h 81% 0.00in /  0mm 12 W/m2
15:54 53.2 °F /  11.8 °C 48.3 °F /  9.1 °C 29.86in /  1011.1hPa South 8.4mph /  13.5km/h 14mph /  22.5km/h 81% 0.00in /  0mm 9 W/m2
15:59 53.1 °F /  11.7 °C 48.2 °F /  9 °C 29.85in /  1010.7hPa SSW 6.8mph /  10.9km/h 17mph /  27.4km/h 81% 0.00in /  0mm 5 W/m2
16:04 53.1 °F /  11.7 °C 48.2 °F /  9 °C 29.86in /  1011.1hPa South 5.6mph /  9km/h 11mph /  17.7km/h 81% 0.00in /  0mm 0 W/m2
16:09 53 °F /  11.7 °C 48.1 °F /  8.9 °C 29.86in /  1011.1hPa South 5.4mph /  8.7km/h 11mph /  17.7km/h 81% 0.00in /  0mm 0 W/m2
16:14 52.9 °F /  11.6 °C 48.3 °F /  9.1 °C 29.86in /  1011.1hPa SSW 5.3mph /  8.5km/h 11mph /  17.7km/h 81.8% 0.00in /  0mm 0 W/m2
16:19 52.8 °F /  11.6 °C 48.3 °F /  9.1 °C 29.86in /  1011.1hPa SSE 6.2mph /  10km/h 15mph /  24.1km/h 82% 0.00in /  0mm 0 W/m2
16:24 52.6 °F /  11.4 °C 48.1 °F /  8.9 °C 29.86in /  1011.1hPa South 5.9mph /  9.5km/h 15mph /  24.1km/h 82% 0.00in /  0mm 0 W/m2
16:29 52.5 °F /  11.4 °C 48 °F /  8.9 °C 29.86in /  1011.1hPa South 8.6mph /  13.8km/h 13mph /  20.9km/h 82% 0.00in /  0mm 0 W/m2
16:34 52.5 °F /  11.4 °C 48.1 °F /  8.9 °C 29.86in /  1011.1hPa SSE 7.6mph /  12.2km/h 14mph /  22.5km/h 82.4% 0.00in /  0mm 0 W/m2
16:39 52.3 °F /  11.3 °C 48.2 °F /  9 °C 29.85in /  1010.7hPa SSE 9.2mph /  14.8km/h 15mph /  24.1km/h 83% 0.00in /  0mm 0 W/m2
16:44 52.3 °F /  11.3 °C 48.2 °F /  9 °C 29.85in /  1010.7hPa South 7.8mph /  12.6km/h 13mph /  20.9km/h 83% 0.00in /  0mm 0 W/m2
16:49 52.2 °F /  11.2 °C 48 °F /  8.9 °C 29.85in /  1010.7hPa South 8mph /  12.9km/h 13mph /  20.9km/h 83% 0.00in /  0mm 0 W/m2
16:54 52.2 °F /  11.2 °C 48 °F /  8.9 °C 29.85in /  1010.7hPa South 6mph /  9.7km/h 13mph /  20.9km/h 83% 0.00in /  0mm 0 W/m2
16:59 52 °F /  11.1 °C 47.8 °F /  8.8 °C 29.85in /  1010.7hPa SSE 5.3mph /  8.5km/h 13mph /  20.9km/h 83% 0.00in /  0mm 0 W/m2
17:04 52 °F /  11.1 °C 47.8 °F /  8.8 °C 29.85in /  1010.7hPa SSE 6.8mph /  10.9km/h 11mph /  17.7km/h 83% 0.00in /  0mm 0 W/m2
17:09 51.8 °F /  11 °C 48 °F /  8.9 °C 29.85in /  1010.7hPa SSE 6.1mph /  9.8km/h 12mph /  19.3km/h 84% 0.00in /  0mm 0 W/m2
17:14 51.7 °F /  10.9 °C 47.9 °F /  8.8 °C 29.85in /  1010.7hPa SSE 7mph /  11.3km/h 12mph /  19.3km/h 84% 0.00in /  0mm 0 W/m2
17:19 51.6 °F /  10.9 °C 47.8 °F /  8.8 °C 29.84in /  1010.4hPa SSE 6.7mph /  10.8km/h 13mph /  20.9km/h 84% 0.00in /  0mm 0 W/m2
17:24 51.6 °F /  10.9 °C 47.8 °F /  8.8 °C 29.84in /  1010.4hPa South 7.2mph /  11.6km/h 12mph /  19.3km/h 84% 0.00in /  0mm 0 W/m2
17:29 51.4 °F /  10.8 °C 47.7 °F /  8.7 °C 29.84in /  1010.4hPa SSE 6.4mph /  10.3km/h 16mph /  25.7km/h 84% 0.00in /  0mm 0 W/m2
17:34 51.4 °F /  10.8 °C 47.9 °F /  8.8 °C 29.83in /  1010hPa SSE 6.5mph /  10.5km/h 11mph /  17.7km/h 84.6% 0.00in /  0mm 0 W/m2
17:39 51.3 °F /  10.7 °C 47.8 °F /  8.8 °C 29.83in /  1010hPa South 7.2mph /  11.6km/h 13mph /  20.9km/h 85% 0.00in /  0mm 0 W/m2
17:44 51.3 °F /  10.7 °C 47.8 °F /  8.8 °C 29.83in /  1010hPa SSE 6.2mph /  10km/h 12mph /  19.3km/h 85% 0.00in /  0mm 0 W/m2
17:49 51.2 °F /  10.7 °C 47.8 °F /  8.8 °C 29.83in /  1010hPa SSE 4.8mph /  7.7km/h 11mph /  17.7km/h 85% 0.00in /  0mm 0 W/m2
17:54 51.1 °F /  10.6 °C 47.7 °F /  8.7 °C 29.83in /  1010hPa SSE 7mph /  11.3km/h 11mph /  17.7km/h 85% 0.00in /  0mm 0 W/m2
17:59 51.1 °F /  10.6 °C 47.7 °F /  8.7 °C 29.83in /  1010hPa SSE 4.8mph /  7.7km/h 14mph /  22.5km/h 85% 0.00in /  0mm 0 W/m2
18:04 51.3 °F /  10.7 °C 47.8 °F /  8.8 °C 29.83in /  1010hPa SSE 6.2mph /  10km/h 16mph /  25.7km/h 85% 0.00in /  0mm 0 W/m2
18:09 51.3 °F /  10.7 °C 47.8 °F /  8.8 °C 29.83in /  1010hPa SSE 4.9mph /  7.9km/h 16mph /  25.7km/h 85% 0.00in /  0mm 0 W/m2
18:14 51.3 °F /  10.7 °C 47.8 °F /  8.8 °C 29.83in /  1010hPa South 4.7mph /  7.6km/h 11mph /  17.7km/h 85% 0.00in /  0mm 0 W/m2
18:19 51.3 °F /  10.7 °C 47.9 °F /  8.8 °C 29.83in /  1010hPa SSE 8mph /  12.9km/h 12mph /  19.3km/h 85.6% 0.00in /  0mm 0 W/m2
18:24 51.3 °F /  10.7 °C 48 °F /  8.9 °C 29.83in /  1010hPa SSE 6.1mph /  9.8km/h 12mph /  19.3km/h 85.4% 0.00in /  0mm 0 W/m2
18:29 51.4 °F /  10.8 °C 48 °F /  8.9 °C 29.83in /  1010hPa South 6.1mph /  9.8km/h 13mph /  20.9km/h 85.2% 0.00in /  0mm 0 W/m2
18:34 51.4 °F /  10.8 °C 48.1 °F /  8.9 °C 29.83in /  1010hPa SSE 7.8mph /  12.6km/h 13mph /  20.9km/h 85.6% 0.00in /  0mm 0 W/m2
18:39 51.4 °F /  10.8 °C 48.2 °F /  9 °C 29.83in /  1010hPa South 6.2mph /  10km/h 11mph /  17.7km/h 85.8% 0.00in /  0mm 0 W/m2
18:44 51.4 °F /  10.8 °C 48.2 °F /  9 °C 29.83in /  1010hPa SSE 6.8mph /  10.9km/h 13mph /  20.9km/h 86% 0.00in /  0mm 0 W/m2
18:49 51.6 °F /  10.9 °C 48.4 °F /  9.1 °C 29.83in /  1010hPa SSE 5.5mph /  8.9km/h 12mph /  19.3km/h 86% 0.00in /  0mm 0 W/m2
18:54 51.6 °F /  10.9 °C 48.4 °F /  9.1 °C 29.83in /  1010hPa SSE 5mph /  8km/h 8mph /  12.9km/h 86% 0.00in /  0mm 0 W/m2
18:59 51.7 °F /  10.9 °C 48.5 °F /  9.2 °C 29.83in /  1010hPa South 5.4mph /  8.7km/h 14mph /  22.5km/h 86% 0.00in /  0mm 0 W/m2
19:04 52 °F /  11.1 °C 48.7 °F /  9.3 °C 29.83in /  1010hPa SSE 6.4mph /  10.3km/h 11mph /  17.7km/h 86% 0.00in /  0mm 0 W/m2
19:09 52 °F /  11.1 °C 48.6 °F /  9.2 °C 29.83in /  1010hPa SSE 6.4mph /  10.3km/h 11mph /  17.7km/h 85.4% 0.00in /  0mm 0 W/m2
19:14 52 °F /  11.1 °C 48.6 °F /  9.2 °C 29.83in /  1010hPa SSE 6.7mph /  10.8km/h 13mph /  20.9km/h 85.2% 0.00in /  0mm 0 W/m2
19:19 52 °F /  11.1 °C 48.6 °F /  9.2 °C 29.83in /  1010hPa SSE 5.7mph /  9.2km/h 11mph /  17.7km/h 85.4% 0.00in /  0mm 0 W/m2
19:24 51.9 °F /  11.1 °C 48.7 °F /  9.3 °C 29.83in /  1010hPa SSE 5.2mph /  8.4km/h 11mph /  17.7km/h 86% 0.00in /  0mm 0 W/m2
19:29 51.8 °F /  11 °C 48.6 °F /  9.2 °C 29.83in /  1010hPa SSE 6mph /  9.7km/h 12mph /  19.3km/h 86% 0.00in /  0mm 0 W/m2
19:34 51.9 °F /  11.1 °C 48.6 °F /  9.2 °C 29.83in /  1010hPa SSE 4.7mph /  7.6km/h 8mph /  12.9km/h 86% 0.00in /  0mm 0 W/m2
19:39 51.9 °F /  11.1 °C 48.6 °F /  9.2 °C 29.83in /  1010hPa SSE 5.3mph /  8.5km/h 10mph /  16.1km/h 86% 0.00in /  0mm 0 W/m2
19:44 51.8 °F /  11 °C 48.6 °F /  9.2 °C 29.83in /  1010hPa SSE 6mph /  9.7km/h 12mph /  19.3km/h 86% 0.00in /  0mm 0 W/m2
19:49 51.9 °F /  11.1 °C 48.6 °F /  9.2 °C 29.83in /  1010hPa SSE 8.2mph /  13.2km/h 12mph /  19.3km/h 86% 0.00in /  0mm 0 W/m2
19:54 51.8 °F /  11 °C 48.6 °F /  9.2 °C 29.82in /  1009.7hPa SSE 6.2mph /  10km/h 10mph /  16.1km/h 86% 0.00in /  0mm 0 W/m2
19:59 51.8 °F /  11 °C 48.9 °F /  9.4 °C 29.82in /  1009.7hPa SSE 6.6mph /  10.6km/h 13mph /  20.9km/h 87% 0.00in /  0mm 0 W/m2
20:04 51.8 °F /  11 °C 48.9 °F /  9.4 °C 29.82in /  1009.7hPa SSE 6mph /  9.7km/h 11mph /  17.7km/h 87% 0.00in /  0mm 0 W/m2
20:09 51.8 °F /  11 °C 48.9 °F /  9.4 °C 29.82in /  1009.7hPa SSE 6mph /  9.7km/h 11mph /  17.7km/h 87% 0.00in /  0mm 0 W/m2
20:14 51.9 °F /  11.1 °C 49 °F /  9.4 °C 29.82in /  1009.7hPa SSE 5.5mph /  8.9km/h 12mph /  19.3km/h 87% 0.00in /  0mm 0 W/m2
20:19 52 °F /  11.1 °C 49.1 °F /  9.5 °C 29.82in /  1009.7hPa SSE 4.8mph /  7.7km/h 9mph /  14.5km/h 87% 0.00in /  0mm 0 W/m2
20:24 52 °F /  11.1 °C 49.1 °F /  9.5 °C 29.82in /  1009.7hPa South 5.9mph /  9.5km/h 10mph /  16.1km/h 87% 0.00in /  0mm 0 W/m2
20:29 52 °F /  11.1 °C 49.1 °F /  9.5 °C 29.82in /  1009.7hPa SSE 5.2mph /  8.4km/h 12mph /  19.3km/h 87% 0.00in /  0mm 0 W/m2
20:34 52.1 °F /  11.2 °C 49.2 °F /  9.6 °C 29.81in /  1009.4hPa South 7.4mph /  11.9km/h 10mph /  16.1km/h 87% 0.00in /  0mm 0 W/m2
20:39 52.2 °F /  11.2 °C 49.3 °F /  9.6 °C 29.81in /  1009.4hPa SSE 6.2mph /  10km/h 11mph /  17.7km/h 87% 0.00in /  0mm 0 W/m2
20:44 52.2 °F /  11.2 °C 49.3 °F /  9.6 °C 29.80in /  1009hPa SSE 6.3mph /  10.1km/h 9mph /  14.5km/h 87% 0.00in /  0mm 0 W/m2
20:49 52.2 °F /  11.2 °C 49.3 °F /  9.6 °C 29.80in /  1009hPa SSE 5.2mph /  8.4km/h 10mph /  16.1km/h 87% 0.00in /  0mm 0 W/m2
20:54 52.2 °F /  11.2 °C 49.3 °F /  9.6 °C 29.80in /  1009hPa SSE 5.1mph /  8.2km/h 13mph /  20.9km/h 87% 0.00in /  0mm 0 W/m2
20:59 52.3 °F /  11.3 °C 49.4 °F /  9.7 °C 29.80in /  1009hPa SSE 5.6mph /  9km/h 11mph /  17.7km/h 87% 0.00in /  0mm 0 W/m2
21:04 52.3 °F /  11.3 °C 49.5 °F /  9.7 °C 29.80in /  1009hPa SSE 6.2mph /  10km/h 11mph /  17.7km/h 87% 0.00in /  0mm 0 W/m2
21:09 52.3 °F /  11.3 °C 49.5 °F /  9.7 °C 29.80in /  1009hPa SSE 5.5mph /  8.9km/h 11mph /  17.7km/h 87% 0.00in /  0mm 0 W/m2
21:14 52.3 °F /  11.3 °C 49.5 °F /  9.7 °C 29.80in /  1009hPa SSE 5.4mph /  8.7km/h 11mph /  17.7km/h 87% 0.00in /  0mm 0 W/m2
21:19 52.3 °F /  11.3 °C 49.7 °F /  9.8 °C 29.80in /  1009hPa SSE 3.6mph /  5.8km/h 11mph /  17.7km/h 87.8% 0.00in /  0mm 0 W/m2
21:24 52.3 °F /  11.3 °C 49.7 °F /  9.8 °C 29.80in /  1009hPa SSE 3.2mph /  5.1km/h 9mph /  14.5km/h 87.8% 0.00in /  0mm 0 W/m2
21:29 52.3 °F /  11.3 °C 49.7 °F /  9.8 °C 29.80in /  1009hPa SSE 2.5mph /  4km/h 6mph /  9.7km/h 87.6% 0.00in /  0mm 0 W/m2
21:34 52.3 °F /  11.3 °C 49.6 °F /  9.8 °C 29.80in /  1009hPa South 3.7mph /  6km/h 10mph /  16.1km/h 87.2% 0.00in /  0mm 0 W/m2
21:39 52.3 °F /  11.3 °C 49.5 °F /  9.7 °C 29.80in /  1009hPa SSE 3.4mph /  5.5km/h 11mph /  17.7km/h 87% 0.00in /  0mm 0 W/m2
21:44 52.2 °F /  11.2 °C 49.3 °F /  9.6 °C 29.80in /  1009hPa SE 1.8mph /  2.9km/h 7mph /  11.3km/h 87% 0.00in /  0mm 0 W/m2
21:49 52 °F /  11.1 °C 49.3 °F /  9.6 °C 29.80in /  1009hPa East 3.6mph /  5.8km/h 7mph /  11.3km/h 87.4% 0.00in /  0mm 0 W/m2
21:54 52 °F /  11.1 °C 49.2 °F /  9.6 °C 29.80in /  1009hPa East 3.1mph /  5km/h 8mph /  12.9km/h 87.2% 0.00in /  0mm 0 W/m2
21:59 52 °F /  11.1 °C 49.5 °F /  9.7 °C 29.80in /  1009hPa ESE 2.5mph /  4km/h 6mph /  9.7km/h 88% 0.00in /  0mm 0 W/m2
22:04 52 °F /  11.1 °C 49.5 °F /  9.7 °C 29.80in /  1009hPa East 2.4mph /  3.9km/h 8mph /  12.9km/h 88% 0.00in /  0mm 0 W/m2
22:09 52 °F /  11.1 °C 49.5 °F /  9.7 °C 29.80in /  1009hPa ESE 2.8mph /  4.5km/h 6mph /  9.7km/h 88% 0.00in /  0mm 0 W/m2
22:14 52 °F /  11.1 °C 49.5 °F /  9.7 °C 29.80in /  1009hPa SE 1mph /  1.6km/h 5mph /  8km/h 88% 0.00in /  0mm 0 W/m2
22:19 52 °F /  11.1 °C 49.5 °F /  9.7 °C 29.79in /  1008.7hPa SE 2.4mph /  3.9km/h 5mph /  8km/h 88% 0.00in /  0mm 0 W/m2
22:24 52 °F /  11.1 °C 49.5 °F /  9.7 °C 29.79in /  1008.7hPa ENE 2.3mph /  3.7km/h 7mph /  11.3km/h 88% 0.00in /  0mm 0 W/m2
22:29 52 °F /  11.1 °C 49.5 °F /  9.7 °C 29.79in /  1008.7hPa ENE 2mph /  3.2km/h 4mph /  6.4km/h 88% 0.00in /  0mm 0 W/m2
22:34 52.1 °F /  11.2 °C 49.5 °F /  9.7 °C 29.79in /  1008.7hPa ENE 2.1mph /  3.4km/h 5mph /  8km/h 88% 0.00in /  0mm 0 W/m2
22:39 52.2 °F /  11.2 °C 49.6 °F /  9.8 °C 29.79in /  1008.7hPa ENE 3.1mph /  5km/h 7mph /  11.3km/h 88% 0.00in /  0mm 0 W/m2
22:44 52.2 °F /  11.2 °C 49.8 °F /  9.9 °C 29.78in /  1008.4hPa ENE 3.2mph /  5.1km/h 11mph /  17.7km/h 88.8% 0.00in /  0mm 0 W/m2
22:49 52.3 °F /  11.3 °C 50 °F /  10 °C 29.78in /  1008.4hPa ENE 1.3mph /  2.1km/h 5mph /  8km/h 89% 0.00in /  0mm 0 W/m2
22:54 52.3 °F /  11.3 °C 50 °F /  10 °C 29.79in /  1008.7hPa ENE 0.8mph /  1.3km/h 5mph /  8km/h 89% 0.00in /  0mm 0 W/m2
22:59 52.3 °F /  11.3 °C 50 °F /  10 °C 29.79in /  1008.7hPa ENE 0.6mph /  1km/h 3mph /  4.8km/h 89% 0.00in /  0mm 0 W/m2
23:04 52.3 °F /  11.3 °C 50 °F /  10 °C 29.79in /  1008.7hPa ENE 1.6mph /  2.6km/h 4mph /  6.4km/h 89% 0.00in /  0mm 0 W/m2
23:09 52.3 °F /  11.3 °C 50 °F /  10 °C 29.79in /  1008.7hPa ENE 1.6mph /  2.6km/h 4mph /  6.4km/h 89% 0.00in /  0mm 0 W/m2
23:14 52.3 °F /  11.3 °C 50 °F /  10 °C 29.79in /  1008.7hPa East 2.3mph /  3.7km/h 6mph /  9.7km/h 89% 0.00in /  0mm 0 W/m2
23:19 52.3 °F /  11.3 °C 50 °F /  10 °C 29.78in /  1008.4hPa East 2.8mph /  4.5km/h 5mph /  8km/h 89% 0.00in /  0mm 0 W/m2
23:24 52.4 °F /  11.3 °C 50.1 °F /  10.1 °C 29.78in /  1008.4hPa ESE 3.7mph /  6km/h 7mph /  11.3km/h 89% 0.00in /  0mm 0 W/m2
23:29 52.5 °F /  11.4 °C 50.2 °F /  10.1 °C 29.78in /  1008.4hPa ESE 3mph /  4.8km/h 7mph /  11.3km/h 89% 0.00in /  0mm 0 W/m2
23:34 52.5 °F /  11.4 °C 50.2 °F /  10.1 °C 29.78in /  1008.4hPa ESE 3.5mph /  5.6km/h 7mph /  11.3km/h 89% 0.00in /  0mm 0 W/m2
23:39 52.5 °F /  11.4 °C 50.2 °F /  10.1 °C 29.78in /  1008.4hPa SE 2.8mph /  4.5km/h 7mph /  11.3km/h 89% 0.00in /  0mm 0 W/m2
23:44 52.6 °F /  11.4 °C 50.3 °F /  10.2 °C 29.78in /  1008.4hPa SE 2.5mph /  4km/h 7mph /  11.3km/h 89% 0.00in /  0mm 0 W/m2
23:49 52.7 °F /  11.5 °C 50.5 °F /  10.3 °C 29.78in /  1008.4hPa SE 2.5mph /  4km/h 9mph /  14.5km/h 89.2% 0.00in /  0mm 0 W/m2
23:54 52.7 °F /  11.5 °C 50.6 °F /  10.3 °C 29.78in /  1008.4hPa SE 2.2mph /  3.5km/h 8mph /  12.9km/h 89.8% 0.00in /  0mm 0 W/m2
23:59 52.9 °F /  11.6 °C 50.9 °F /  10.5 °C 29.78in /  1008.4hPa SE 4.1mph /  6.6km/h 9mph /  14.5km/h 90% 0.00in /  0mm 0 W/m2
Bath Spa Weather
Compliments of Weather Underground - 2 mb